Terminal Aerodrome Forecast
Issued by NWS

Home | Current Version | Previous Version | Graphics & Text | Print | Product List | Glossary On
Versions: 1 2 3 4 5 6 7 8 9 10 11 12 13 14 15 16 17 18 19 20 21 22 23 24 25 26 27 28 29 30
000
FTUS43 KGRB 171137
TAFATW
TAF
KATW 171137Z 1712/1812 20010G15KT P6SM BKN150
     FM171300 21012G18KT P6SM OVC070 WS017/24040KT
     FM171800 23012G18KT 4SM -SN OVC030
      TEMPO 1718/1721 1 1/2SM -SN OVC015
     FM172100 25010KT P6SM BKN035
     FM180400 26007KT P6SM SKC=

USA.gov is the U.S. government's official web portal to all federal, state and local government web resources and services.